createdAt,value
2022-10-26T00:02:13.675Z,99148.19
2022-10-26T00:06:19.126Z,99149.84
2022-10-26T00:10:21.935Z,99152.50
2022-10-26T00:14:24.567Z,99144.94
2022-10-26T00:18:26.621Z,99148.75
2022-10-26T00:22:28.540Z,99146.63
2022-10-26T00:26:30.524Z,99144.50
2022-10-26T00:30:32.713Z,99145.03
2022-10-26T00:34:34.701Z,99149.06
2022-10-26T00:38:37.743Z,99155.19
2022-10-26T00:42:39.753Z,99164.59
2022-10-26T00:46:41.778Z,99161.09
2022-10-26T00:50:46.869Z,99164.31
2022-10-26T00:54:49.152Z,99165.13
2022-10-26T00:58:51.597Z,99169.91
2022-10-26T01:02:56.479Z,99178.22
2022-10-26T01:06:59.502Z,99163.81
2022-10-26T01:11:02.295Z,99165.13
2022-10-26T01:15:05.666Z,99157.91
2022-10-26T01:19:51.883Z,99145.34
2022-10-26T01:24:32.774Z,99152.53
2022-10-26T01:29:18.915Z,99142.91
2022-10-26T01:33:47.144Z,99147.44
2022-10-26T01:37:58.838Z,99142.63
2022-10-26T01:42:02.943Z,99143.97
2022-10-26T01:46:08.116Z,99143.44
2022-10-26T01:50:11.416Z,99144.22
2022-10-26T01:54:13.441Z,99140.47
2022-10-26T01:58:18.795Z,99143.97
2022-10-26T02:02:21.136Z,99142.88
2022-10-26T02:06:31.587Z,99136.41
2022-10-26T02:11:02.392Z,99143.06
2022-10-26T02:15:29.443Z,99146.22
2022-10-26T02:19:45.499Z,99136.59
2022-10-26T02:23:49.166Z,99135.53
2022-10-26T02:27:56.379Z,99132.56
2022-10-26T02:32:00.220Z,99133.91
2022-10-26T02:36:05.786Z,99133.66
2022-10-26T02:40:12.981Z,99132.03
2022-10-26T02:44:18.769Z,99134.97
2022-10-26T02:48:22.543Z,99144.50
2022-10-26T02:52:35.115Z,99135.16
2022-10-26T02:56:46.512Z,99134.38
2022-10-26T03:00:50.609Z,99135.47
2022-10-26T03:04:54.932Z,99132.22
2022-10-26T03:08:57.078Z,99138.06
2022-10-26T03:12:59.338Z,99138.06
2022-10-26T03:17:01.579Z,99132.72
2022-10-26T03:21:03.741Z,99141.00
2022-10-26T03:25:06.529Z,99141.03
2022-10-26T03:29:09.915Z,99131.16
2022-10-26T03:33:12.269Z,99133.03
2022-10-26T03:37:14.240Z,99139.97
2022-10-26T03:41:16.548Z,99143.19
2022-10-26T03:45:18.489Z,99148.47
2022-10-26T03:49:21.149Z,99147.34
2022-10-26T03:53:23.360Z,99158.03
2022-10-26T03:57:25.722Z,99154.34
2022-10-26T04:01:27.889Z,99160.22
2022-10-26T04:05:30.196Z,99150.34
2022-10-26T04:09:32.162Z,99154.31
2022-10-26T04:13:34.403Z,99163.16
2022-10-26T04:17:36.475Z,99162.09
2022-10-26T04:21:38.631Z,99164.50
2022-10-26T04:25:40.819Z,99158.09
2022-10-26T04:29:42.992Z,99154.56
2022-10-26T04:33:45.005Z,99158.28
2022-10-26T04:37:47.260Z,99143.84
2022-10-26T04:41:49.245Z,99155.56
2022-10-26T04:45:55.589Z,99147.28
2022-10-26T04:49:57.766Z,99146.47
2022-10-26T04:53:59.779Z,99144.34
2022-10-26T04:58:02.323Z,99161.31
2022-10-26T05:02:04.733Z,99143.34
2022-10-26T05:06:06.887Z,99148.75
2022-10-26T05:10:09.536Z,99153.28
2022-10-26T05:19:03.268Z,99155.75
2022-10-26T05:23:07.686Z,99156.03
2022-10-26T05:27:09.543Z,99160.84
2022-10-26T05:31:11.867Z,99161.59
2022-10-26T05:35:14.104Z,99159.97
2022-10-26T05:39:16.160Z,99159.09
2022-10-26T05:43:24.017Z,99178.03
2022-10-26T05:47:25.936Z,99172.16
2022-10-26T05:51:27.859Z,99182.31
2022-10-26T05:55:30.433Z,99181.78
2022-10-26T05:59:32.728Z,99174.56
2022-10-26T06:03:46.338Z,99177.72
2022-10-26T06:07:48.831Z,99172.16
2022-10-26T06:11:51.383Z,99175.63
2022-10-26T06:16:12.074Z,99179.47
2022-10-26T06:20:31.850Z,99192.59
2022-10-26T06:25:15.287Z,99195.06
2022-10-26T06:29:32.077Z,99193.75
2022-10-26T06:33:34.561Z,99199.41
2022-10-26T06:37:37.779Z,99199.72
2022-10-26T06:41:40.221Z,99200.03
2022-10-26T06:45:48.887Z,99194.25
2022-10-26T06:50:29.386Z,99193.81
2022-10-26T06:54:53.459Z,99207.50
2022-10-26T06:59:04.759Z,99207.88
2022-10-26T07:03:08.964Z,99213.53
2022-10-26T07:07:14.377Z,99213.28
2022-10-26T07:11:16.834Z,99222.66
2022-10-26T07:15:18.989Z,99230.44
2022-10-26T07:19:20.967Z,99233.16
2022-10-26T07:23:23.816Z,99236.63
2022-10-26T07:27:25.781Z,99239.84
2022-10-26T07:31:27.803Z,99245.72
2022-10-26T07:35:30.307Z,99253.25
2022-10-26T07:39:32.931Z,99259.66
2022-10-26T07:43:34.930Z,99256.41
2022-10-26T07:47:36.877Z,99259.56
2022-10-26T07:51:38.796Z,99265.41
2022-10-26T07:55:40.863Z,99270.41
2022-10-26T07:59:42.945Z,99278.13
2022-10-26T08:03:48.949Z,99262.38
2022-10-26T08:07:53.144Z,99255.19
2022-10-26T08:11:55.176Z,99258.97
2022-10-26T08:16:01.407Z,99248.09
2022-10-26T08:20:03.909Z,99258.44
2022-10-26T08:24:06.246Z,99269.66
2022-10-26T08:28:08.206Z,99268.50
2022-10-26T08:32:10.178Z,99274.16
2022-10-26T08:36:12.660Z,99277.66
2022-10-26T08:40:20.143Z,99273.75
2022-10-26T08:44:36.440Z,99275.19
2022-10-26T08:48:47.906Z,99273.09
2022-10-26T08:53:02.170Z,99271.44
2022-10-26T08:57:38.251Z,99269.03
2022-10-26T09:01:40.337Z,99272.00
2022-10-26T09:06:11.825Z,99273.97
2022-10-26T09:14:49.754Z,99271.53
2022-10-26T09:19:22.671Z,99266.72
2022-10-26T09:23:55.727Z,99277.34
2022-10-26T09:28:00.866Z,99272.34
2022-10-26T09:32:04.123Z,99270.34
2022-10-26T09:36:18.759Z,99270.78
2022-10-26T09:40:47.451Z,99270.81
2022-10-26T09:45:12.609Z,99280.31
2022-10-26T09:49:18.395Z,99273.34
2022-10-26T09:53:20.403Z,99272.50
2022-10-26T09:57:22.918Z,99276.63
2022-10-26T10:01:30.210Z,99276.72
2022-10-26T10:05:51.756Z,99267.44
2022-10-26T10:10:17.686Z,99266.75
2022-10-26T10:14:19.715Z,99274.53
2022-10-26T10:18:23.486Z,99266.63
2022-10-26T10:22:25.979Z,99274.72
2022-10-26T10:26:28.290Z,99267.53
2022-10-26T10:30:33.547Z,99274.97
2022-10-26T10:34:36.335Z,99278.47
2022-10-26T10:38:41.010Z,99269.72
2022-10-26T10:42:45.091Z,99279.25
2022-10-26T10:46:47.351Z,99268.56
2022-10-26T10:51:11.076Z,99269.88
2022-10-26T10:55:22.798Z,99271.16
2022-10-26T10:59:36.851Z,99259.72
2022-10-26T11:04:06.730Z,99271.50
2022-10-26T11:08:12.970Z,99272.22
2022-10-26T11:12:47.021Z,99266.72
2022-10-26T11:17:11.867Z,99264.88
2022-10-26T11:21:30.840Z,99261.88
2022-10-26T11:25:41.337Z,99258.38
2022-10-26T11:29:48.577Z,99253.44
2022-10-26T11:34:13.845Z,99258.84
2022-10-26T11:38:46.304Z,99257.63
2022-10-26T11:43:21.772Z,99243.63
2022-10-26T11:47:40.848Z,99250.00
2022-10-26T11:52:18.848Z,99252.88
2022-10-26T11:56:38.567Z,99253.69
2022-10-26T12:00:51.908Z,99251.28
2022-10-26T12:05:19.837Z,99257.22
2022-10-26T12:09:27.155Z,99259.34
2022-10-26T12:13:42.418Z,99253.34
2022-10-26T12:18:01.290Z,99254.19
2022-10-26T12:22:04.230Z,99247.38
2022-10-26T12:26:24.438Z,99248.19
2022-10-26T12:30:31.927Z,99230.72
2022-10-26T12:34:40.084Z,99233.59
2022-10-26T12:38:41.984Z,99230.88
2022-10-26T12:42:43.898Z,99227.41
2022-10-26T12:46:45.881Z,99225.66
2022-10-26T12:50:47.880Z,99219.59
2022-10-26T12:55:18.197Z,99218.47
2022-10-26T12:59:42.275Z,99213.69
2022-10-26T13:04:07.396Z,99211.78
2022-10-26T13:08:11.907Z,99213.53
2022-10-26T13:12:14.558Z,99209.53
2022-10-26T13:16:16.772Z,99208.59
2022-10-26T13:20:19.186Z,99200.47
2022-10-26T13:24:25.664Z,99213.66
2022-10-26T13:28:39.798Z,99208.41
2022-10-26T13:32:54.667Z,99206.28
2022-10-26T13:37:21.749Z,99211.25
2022-10-26T13:41:35.917Z,99213.13
2022-10-26T13:45:54.880Z,99208.78
2022-10-26T13:50:04.394Z,99211.03
2022-10-26T13:54:42.933Z,99204.66
2022-10-26T13:58:52.601Z,99200.94
2022-10-26T14:02:55.928Z,99198.88
2022-10-26T14:06:57.968Z,99203.97
2022-10-26T14:11:00.411Z,99198.56
2022-10-26T14:15:09.703Z,99206.84
2022-10-26T14:19:27.061Z,99205.25
2022-10-26T14:23:34.818Z,99203.31
2022-10-26T14:27:39.667Z,99204.13
2022-10-26T14:31:41.613Z,99202.53
2022-10-26T14:35:44.039Z,99207.16
2022-10-26T14:39:47.814Z,99211.34
2022-10-26T14:43:50.427Z,99208.94
2022-10-26T14:47:52.452Z,99214.41
2022-10-26T14:51:59.870Z,99203.25
2022-10-26T14:56:03.612Z,99208.53
2022-10-26T15:00:21.103Z,99205.03
2022-10-26T15:04:29.301Z,99198.34
2022-10-26T15:08:52.360Z,99203.00
2022-10-26T15:12:58.346Z,99205.22
2022-10-26T15:17:00.923Z,99208.91
2022-10-26T15:21:03.588Z,99208.75
2022-10-26T15:25:06.540Z,99208.94
2022-10-26T15:29:35.421Z,99210.03
2022-10-26T15:33:40.445Z,99209.06
2022-10-26T15:37:42.512Z,99218.22
2022-10-26T15:41:46.993Z,99225.66
2022-10-26T15:45:49.615Z,99223.84
2022-10-26T15:49:51.678Z,99229.78
2022-10-26T15:53:54.022Z,99229.44
2022-10-26T15:57:56.068Z,99231.75
2022-10-26T16:01:58.217Z,99227.28
2022-10-26T16:06:02.542Z,99235.41
2022-10-26T16:10:04.722Z,99233.84
2022-10-26T16:14:06.930Z,99237.66
2022-10-26T16:18:09.411Z,99236.13
2022-10-26T16:26:14.501Z,99242.78
2022-10-26T16:30:17.238Z,99242.09
2022-10-26T16:34:19.136Z,99251.16
2022-10-26T16:38:21.103Z,99252.47
2022-10-26T16:42:23.306Z,99248.50
2022-10-26T16:46:25.412Z,99257.47
2022-10-26T16:50:28.720Z,99264.88
2022-10-26T16:54:33.322Z,99271.84
2022-10-26T16:58:37.493Z,99272.75
2022-10-26T17:02:39.883Z,99281.94
2022-10-26T17:06:41.875Z,99284.19
2022-10-26T17:10:44.128Z,99285.16
2022-10-26T17:14:46.143Z,99286.28
2022-10-26T17:18:48.588Z,99287.97
2022-10-26T17:22:51.055Z,99302.28
2022-10-26T17:26:53.174Z,99306.56
2022-10-26T17:31:10.440Z,99315.22
2022-10-26T17:35:13.521Z,99316.09
2022-10-26T17:39:16.459Z,99318.91
2022-10-26T17:43:18.902Z,99324.38
2022-10-26T17:47:21.192Z,99331.09
2022-10-26T17:51:23.832Z,99342.16
2022-10-26T17:55:25.794Z,99343.53
2022-10-26T17:59:27.948Z,99338.63
2022-10-26T18:03:30.097Z,99348.94
2022-10-26T18:07:32.469Z,99350.03
2022-10-26T18:11:34.450Z,99351.41
2022-10-26T18:15:36.668Z,99357.56
2022-10-26T18:19:38.845Z,99355.97
2022-10-26T18:23:41.082Z,99364.59
2022-10-26T18:27:43.107Z,99373.50
2022-10-26T18:31:45.772Z,99366.25
2022-10-26T18:35:47.699Z,99370.28
2022-10-26T18:39:49.640Z,99377.53
2022-10-26T18:43:55.198Z,99376.75
2022-10-26T18:47:57.281Z,99386.13
2022-10-26T18:52:00.150Z,99393.38
2022-10-26T18:56:16.587Z,99396.88
2022-10-26T19:00:19.908Z,99404.91
2022-10-26T19:04:21.843Z,99402.78
2022-10-26T19:08:27.811Z,99403.03
2022-10-26T19:12:30.074Z,99403.59
2022-10-26T19:16:45.200Z,99407.59
2022-10-26T19:20:49.423Z,99406.00
2022-10-26T19:24:51.412Z,99402.78
2022-10-26T19:28:55.625Z,99415.63
2022-10-26T19:32:57.592Z,99414.03
2022-10-26T19:36:59.497Z,99408.88
2022-10-26T19:41:04.266Z,99415.00
2022-10-26T19:45:06.976Z,99421.66
2022-10-26T19:49:09.089Z,99422.75
2022-10-26T19:53:11.114Z,99431.53
2022-10-26T19:57:13.101Z,99434.16
2022-10-26T20:01:15.786Z,99440.00
2022-10-26T20:05:17.861Z,99444.50
2022-10-26T20:09:19.819Z,99446.69
2022-10-26T20:13:22.350Z,99448.59
2022-10-26T20:17:28.289Z,99455.63
2022-10-26T20:21:30.543Z,99456.91
2022-10-26T20:25:36.454Z,99461.13
2022-10-26T20:29:38.468Z,99468.31
2022-10-26T20:33:40.541Z,99470.44
2022-10-26T20:37:42.907Z,99474.53
2022-10-26T20:41:45.860Z,99477.75
2022-10-26T20:45:48.359Z,99483.38
2022-10-26T20:49:50.754Z,99479.66
2022-10-26T20:54:05.370Z,99474.25
2022-10-26T20:58:30.571Z,99483.63
2022-10-26T21:02:32.628Z,99482.75
2022-10-26T21:06:40.359Z,99485.97
2022-10-26T21:10:42.641Z,99491.00
2022-10-26T21:14:44.880Z,99489.63
2022-10-26T21:18:46.953Z,99493.84
2022-10-26T21:22:48.924Z,99492.97
2022-10-26T21:26:51.354Z,99493.75
2022-10-26T21:30:53.484Z,99496.44
2022-10-26T21:34:55.667Z,99502.59
2022-10-26T21:38:57.640Z,99498.78
2022-10-26T21:42:59.564Z,99505.25
2022-10-26T21:47:02.000Z,99507.66
2022-10-26T21:51:06.658Z,99507.81
2022-10-26T21:55:09.217Z,99507.53
2022-10-26T21:59:11.219Z,99515.31
2022-10-26T22:03:13.502Z,99509.22
2022-10-26T22:07:15.584Z,99513.88
2022-10-26T22:11:23.075Z,99503.22
2022-10-26T22:15:25.125Z,99512.13
2022-10-26T22:19:27.154Z,99511.63
2022-10-26T22:23:29.199Z,99511.81
2022-10-26T22:27:31.462Z,99510.28
2022-10-26T22:31:37.238Z,99510.69
2022-10-26T22:35:39.240Z,99507.94
2022-10-26T22:39:41.205Z,99514.44
2022-10-26T22:43:43.529Z,99513.13
2022-10-26T22:47:45.615Z,99508.28
2022-10-26T22:51:47.540Z,99518.59
2022-10-26T22:55:50.574Z,99507.34
2022-10-26T22:59:52.515Z,99505.94
2022-10-26T23:03:58.606Z,99509.38
2022-10-26T23:08:03.735Z,99505.94
2022-10-26T23:12:06.048Z,99501.91
2022-10-26T23:16:10.818Z,99509.44
2022-10-26T23:20:12.845Z,99509.09
2022-10-26T23:24:14.809Z,99514.31
2022-10-26T23:28:16.908Z,99511.38
2022-10-26T23:32:18.919Z,99506.09
2022-10-26T23:36:21.578Z,99503.69
2022-10-26T23:40:23.588Z,99503.94
2022-10-26T23:44:25.655Z,99497.94
2022-10-26T23:48:27.936Z,99507.50
2022-10-26T23:52:29.873Z,99506.50
2022-10-26T23:56:31.832Z,99511.88
